Alhambra, Illinois
Current Conditions -  °F | °C
As of 4:15 AM on Thursday 29 Jan 2015 (Local Time) from KALN Reporting Station
Clear Clear  
Wind Chill: 39°   Ceiling: Unl
Heat Index: 45°   Visibility: 10mi
Dew Point: 37°   Wind: 10mph
Humidity: 75%   Direction: 220°SW
Pressure: 29.78"   Gusts: NA
Location:  38.89°N, 89.73°W
Report Text: KALN 291015Z AUTO 22009KT 10SM CLR 07/03 A2978 RMK AO2 T00700028 TSNO
Loading
Personal Weather Stations






























Interactive Weather Map New forecast layout! Learn more

10-Day Weather Forecast

Advertisements
Track Severe Weather on mobile